sensor_id;sensor_type;location;lat;lon;timestamp;temperature;humidity
43884;DHT22;71973;52.018;5.810;2023-08-12T00:00:10;22.90;76.80
43884;DHT22;71973;52.018;5.810;2023-08-12T00:02:40;22.90;76.80
43884;DHT22;71973;52.018;5.810;2023-08-12T00:05:06;22.90;76.80
43884;DHT22;71973;52.018;5.810;2023-08-12T00:07:32;22.90;76.80
43884;DHT22;71973;52.018;5.810;2023-08-12T00:09:59;22.90;76.80
43884;DHT22;71973;52.018;5.810;2023-08-12T00:12:25;22.90;76.80
43884;DHT22;71973;52.018;5.810;2023-08-12T00:14:50;22.80;76.70
43884;DHT22;71973;52.018;5.810;2023-08-12T00:17:16;22.90;76.80
43884;DHT22;71973;52.018;5.810;2023-08-12T00:19:42;22.90;77.40
43884;DHT22;71973;52.018;5.810;2023-08-12T00:22:07;22.80;76.70
43884;DHT22;71973;52.018;5.810;2023-08-12T00:24:33;22.80;76.70
43884;DHT22;71973;52.018;5.810;2023-08-12T00:26:58;22.80;76.70
43884;DHT22;71973;52.018;5.810;2023-08-12T00:29:24;22.80;76.70
43884;DHT22;71973;52.018;5.810;2023-08-12T00:31:50;22.80;76.70
43884;DHT22;71973;52.018;5.810;2023-08-12T00:34:16;22.80;76.70
43884;DHT22;71973;52.018;5.810;2023-08-12T00:36:42;22.80;76.70
43884;DHT22;71973;52.018;5.810;2023-08-12T00:39:07;22.80;76.70
43884;DHT22;71973;52.018;5.810;2023-08-12T00:41:33;22.80;76.70
43884;DHT22;71973;52.018;5.810;2023-08-12T00:43:58;22.80;76.60
43884;DHT22;71973;52.018;5.810;2023-08-12T00:46:24;22.80;76.60
43884;DHT22;71973;52.018;5.810;2023-08-12T00:48:50;22.80;76.70
43884;DHT22;71973;52.018;5.810;2023-08-12T00:51:16;22.80;76.60
43884;DHT22;71973;52.018;5.810;2023-08-12T00:53:42;22.80;76.60
43884;DHT22;71973;52.018;5.810;2023-08-12T00:56:08;22.80;76.60
43884;DHT22;71973;52.018;5.810;2023-08-12T00:58:34;22.80;76.70
43884;DHT22;71973;52.018;5.810;2023-08-12T01:00:59;22.80;76.60
43884;DHT22;71973;52.018;5.810;2023-08-12T01:03:25;22.80;76.60
43884;DHT22;71973;52.018;5.810;2023-08-12T01:05:51;22.80;76.70
43884;DHT22;71973;52.018;5.810;2023-08-12T01:08:17;22.80;76.70
43884;DHT22;71973;52.018;5.810;2023-08-12T01:10:49;22.80;76.70
43884;DHT22;71973;52.018;5.810;2023-08-12T01:15:52;22.80;76.70
43884;DHT22;71973;52.018;5.810;2023-08-12T01:18:19;22.80;76.60
43884;DHT22;71973;52.018;5.810;2023-08-12T01:20:45;22.80;76.60
43884;DHT22;71973;52.018;5.810;2023-08-12T01:23:15;22.80;76.60
43884;DHT22;71973;52.018;5.810;2023-08-12T01:25:41;22.80;76.60
43884;DHT22;71973;52.018;5.810;2023-08-12T01:28:07;22.80;76.60
43884;DHT22;71973;52.018;5.810;2023-08-12T01:30:37;22.80;76.60
43884;DHT22;71973;52.018;5.810;2023-08-12T01:33:30;22.80;76.60
43884;DHT22;71973;52.018;5.810;2023-08-12T01:36:19;22.70;76.60
43884;DHT22;71973;52.018;5.810;2023-08-12T01:38:45;22.70;76.60
43884;DHT22;71973;52.018;5.810;2023-08-12T01:41:15;22.80;76.60
43884;DHT22;71973;52.018;5.810;2023-08-12T01:43:42;22.80;76.60
43884;DHT22;71973;52.018;5.810;2023-08-12T01:46:07;22.80;76.60
43884;DHT22;71973;52.018;5.810;2023-08-12T01:48:33;22.80;76.60
43884;DHT22;71973;52.018;5.810;2023-08-12T01:50:59;22.80;76.60
43884;DHT22;71973;52.018;5.810;2023-08-12T01:53:25;22.80;76.60
43884;DHT22;71973;52.018;5.810;2023-08-12T01:55:51;22.80;76.60
43884;DHT22;71973;52.018;5.810;2023-08-12T01:58:17;22.70;76.50
43884;DHT22;71973;52.018;5.810;2023-08-12T02:00:42;22.80;76.60
43884;DHT22;71973;52.018;5.810;2023-08-12T02:03:08;22.70;76.50
43884;DHT22;71973;52.018;5.810;2023-08-12T02:05:33;22.70;76.50
43884;DHT22;71973;52.018;5.810;2023-08-12T02:07:59;22.70;76.50
43884;DHT22;71973;52.018;5.810;2023-08-12T02:10:24;22.70;76.50
43884;DHT22;71973;52.018;5.810;2023-08-12T02:12:50;22.80;76.60
43884;DHT22;71973;52.018;5.810;2023-08-12T02:15:16;22.70;77.20
43884;DHT22;71973;52.018;5.810;2023-08-12T02:17:41;22.70;76.50
43884;DHT22;71973;52.018;5.810;2023-08-12T02:20:07;22.70;76.50
43884;DHT22;71973;52.018;5.810;2023-08-12T02:22:33;22.70;76.50
43884;DHT22;71973;52.018;5.810;2023-08-12T02:24:58;22.70;76.50
43884;DHT22;71973;52.018;5.810;2023-08-12T02:27:24;22.70;76.50
43884;DHT22;71973;52.018;5.810;2023-08-12T02:29:49;22.70;76.50
43884;DHT22;71973;52.018;5.810;2023-08-12T02:32:15;22.70;76.50
43884;DHT22;71973;52.018;5.810;2023-08-12T02:34:40;22.70;76.50
43884;DHT22;71973;52.018;5.810;2023-08-12T02:37:06;22.70;76.50
43884;DHT22;71973;52.018;5.810;2023-08-12T02:39:31;22.70;76.50
43884;DHT22;71973;52.018;5.810;2023-08-12T02:41:57;22.70;76.50
43884;DHT22;71973;52.018;5.810;2023-08-12T02:44:22;22.70;76.50
43884;DHT22;71973;52.018;5.810;2023-08-12T02:46:48;22.70;76.50
43884;DHT22;71973;52.018;5.810;2023-08-12T02:49:13;22.70;76.50
43884;DHT22;71973;52.018;5.810;2023-08-12T02:51:39;22.70;76.60
43884;DHT22;71973;52.018;5.810;2023-08-12T02:54:05;22.70;76.50
43884;DHT22;71973;52.018;5.810;2023-08-12T02:56:30;22.70;76.50
43884;DHT22;71973;52.018;5.810;2023-08-12T02:58:56;22.70;76.50
43884;DHT22;71973;52.018;5.810;2023-08-12T03:01:22;22.70;76.50
43884;DHT22;71973;52.018;5.810;2023-08-12T03:03:47;22.70;76.60
43884;DHT22;71973;52.018;5.810;2023-08-12T03:06:13;22.70;76.60
43884;DHT22;71973;52.018;5.810;2023-08-12T03:08:38;22.70;76.50
43884;DHT22;71973;52.018;5.810;2023-08-12T03:11:04;22.70;76.50
43884;DHT22;71973;52.018;5.810;2023-08-12T03:13:30;22.70;76.50
43884;DHT22;71973;52.018;5.810;2023-08-12T03:15:55;22.70;76.50
43884;DHT22;71973;52.018;5.810;2023-08-12T03:18:21;22.70;76.50
43884;DHT22;71973;52.018;5.810;2023-08-12T03:20:47;22.70;76.50
43884;DHT22;71973;52.018;5.810;2023-08-12T03:23:13;22.70;76.50
43884;DHT22;71973;52.018;5.810;2023-08-12T03:25:38;22.70;76.50
43884;DHT22;71973;52.018;5.810;2023-08-12T03:28:04;22.70;76.50
43884;DHT22;71973;52.018;5.810;2023-08-12T03:30:29;22.70;76.40
43884;DHT22;71973;52.018;5.810;2023-08-12T03:32:55;22.70;76.50
43884;DHT22;71973;52.018;5.810;2023-08-12T03:35:21;22.70;76.50
43884;DHT22;71973;52.018;5.810;2023-08-12T03:37:46;22.70;76.50
43884;DHT22;71973;52.018;5.810;2023-08-12T03:40:12;22.60;76.40
43884;DHT22;71973;52.018;5.810;2023-08-12T03:42:37;22.70;76.50
43884;DHT22;71973;52.018;5.810;2023-08-12T03:45:03;22.60;76.40
43884;DHT22;71973;52.018;5.810;2023-08-12T03:47:29;22.70;76.50
43884;DHT22;71973;52.018;5.810;2023-08-12T03:49:55;22.60;76.40
43884;DHT22;71973;52.018;5.810;2023-08-12T03:52:20;22.60;76.40
43884;DHT22;71973;52.018;5.810;2023-08-12T03:54:46;22.60;76.50
43884;DHT22;71973;52.018;5.810;2023-08-12T03:57:11;22.60;76.40
43884;DHT22;71973;52.018;5.810;2023-08-12T03:59:37;22.60;76.40
43884;DHT22;71973;52.018;5.810;2023-08-12T04:02:02;22.60;76.40
43884;DHT22;71973;52.018;5.810;2023-08-12T04:04:29;22.60;76.40
43884;DHT22;71973;52.018;5.810;2023-08-12T04:06:55;22.60;76.40
43884;DHT22;71973;52.018;5.810;2023-08-12T04:09:20;22.60;76.40
43884;DHT22;71973;52.018;5.810;2023-08-12T04:11:46;22.60;76.40
43884;DHT22;71973;52.018;5.810;2023-08-12T04:14:13;22.60;76.40
43884;DHT22;71973;52.018;5.810;2023-08-12T04:16:38;22.60;76.50
43884;DHT22;71973;52.018;5.810;2023-08-12T04:19:04;22.60;76.40
43884;DHT22;71973;52.018;5.810;2023-08-12T04:21:29;22.60;76.50
43884;DHT22;71973;52.018;5.810;2023-08-12T04:23:55;22.60;76.50
43884;DHT22;71973;52.018;5.810;2023-08-12T04:26:21;22.60;76.50
43884;DHT22;71973;52.018;5.810;2023-08-12T04:28:46;22.60;76.50
43884;DHT22;71973;52.018;5.810;2023-08-12T04:31:12;22.60;76.50
43884;DHT22;71973;52.018;5.810;2023-08-12T04:33:37;22.60;76.50
43884;DHT22;71973;52.018;5.810;2023-08-12T04:36:03;22.60;76.40
43884;DHT22;71973;52.018;5.810;2023-08-12T04:38:28;22.60;76.50
43884;DHT22;71973;52.018;5.810;2023-08-12T04:40:54;22.60;76.50
43884;DHT22;71973;52.018;5.810;2023-08-12T04:43:21;22.60;76.50
43884;DHT22;71973;52.018;5.810;2023-08-12T04:45:47;22.60;76.50
43884;DHT22;71973;52.018;5.810;2023-08-12T04:48:13;22.60;76.50
43884;DHT22;71973;52.018;5.810;2023-08-12T04:50:38;22.60;76.50
43884;DHT22;71973;52.018;5.810;2023-08-12T04:53:05;22.60;76.40
43884;DHT22;71973;52.018;5.810;2023-08-12T04:55:30;22.60;76.40
43884;DHT22;71973;52.018;5.810;2023-08-12T04:57:56;22.60;76.50
43884;DHT22;71973;52.018;5.810;2023-08-12T05:00:22;22.60;76.40
43884;DHT22;71973;52.018;5.810;2023-08-12T05:02:48;22.60;76.50
43884;DHT22;71973;52.018;5.810;2023-08-12T05:05:14;22.60;76.50
43884;DHT22;71973;52.018;5.810;2023-08-12T05:07:40;22.60;76.50
43884;DHT22;71973;52.018;5.810;2023-08-12T05:10:05;22.60;76.50
43884;DHT22;71973;52.018;5.810;2023-08-12T05:12:31;22.60;76.50
43884;DHT22;71973;52.018;5.810;2023-08-12T05:14:57;22.60;76.50
43884;DHT22;71973;52.018;5.810;2023-08-12T05:17:22;22.60;76.50
43884;DHT22;71973;52.018;5.810;2023-08-12T05:19:48;22.60;76.50
43884;DHT22;71973;52.018;5.810;2023-08-12T05:22:13;22.60;76.50
43884;DHT22;71973;52.018;5.810;2023-08-12T05:24:39;22.60;76.50
43884;DHT22;71973;52.018;5.810;2023-08-12T05:27:05;22.60;76.60
43884;DHT22;71973;52.018;5.810;2023-08-12T05:29:30;22.60;76.50
43884;DHT22;71973;52.018;5.810;2023-08-12T05:31:56;22.50;76.50
43884;DHT22;71973;52.018;5.810;2023-08-12T05:34:22;22.60;76.50
43884;DHT22;71973;52.018;5.810;2023-08-12T05:36:47;22.60;76.50
43884;DHT22;71973;52.018;5.810;2023-08-12T05:39:13;22.60;76.50
43884;DHT22;71973;52.018;5.810;2023-08-12T05:41:40;22.60;76.50
43884;DHT22;71973;52.018;5.810;2023-08-12T05:44:06;22.60;76.60
43884;DHT22;71973;52.018;5.810;2023-08-12T05:46:32;22.50;76.50
43884;DHT22;71973;52.018;5.810;2023-08-12T05:48:57;22.50;76.60
43884;DHT22;71973;52.018;5.810;2023-08-12T05:51:23;22.50;76.60
43884;DHT22;71973;52.018;5.810;2023-08-12T05:53:48;22.50;77.20
43884;DHT22;71973;52.018;5.810;2023-08-12T05:56:14;22.50;76.60
43884;DHT22;71973;52.018;5.810;2023-08-12T05:58:39;22.50;76.60
43884;DHT22;71973;52.018;5.810;2023-08-12T06:01:05;22.60;76.70
43884;DHT22;71973;52.018;5.810;2023-08-12T06:03:30;22.50;76.60
43884;DHT22;71973;52.018;5.810;2023-08-12T06:05:56;22.50;76.60
43884;DHT22;71973;52.018;5.810;2023-08-12T06:08:21;22.50;76.60
43884;DHT22;71973;52.018;5.810;2023-08-12T06:10:47;22.50;76.60
43884;DHT22;71973;52.018;5.810;2023-08-12T06:13:13;22.50;76.50
43884;DHT22;71973;52.018;5.810;2023-08-12T06:15:39;22.50;76.60
43884;DHT22;71973;52.018;5.810;2023-08-12T06:18:05;22.50;76.70
43884;DHT22;71973;52.018;5.810;2023-08-12T06:20:30;22.50;76.60
43884;DHT22;71973;52.018;5.810;2023-08-12T06:22:56;22.50;76.60
43884;DHT22;71973;52.018;5.810;2023-08-12T06:25:21;22.50;76.70
43884;DHT22;71973;52.018;5.810;2023-08-12T06:27:47;22.50;76.70
43884;DHT22;71973;52.018;5.810;2023-08-12T06:30:13;22.50;76.60
43884;DHT22;71973;52.018;5.810;2023-08-12T06:32:39;22.50;76.60
43884;DHT22;71973;52.018;5.810;2023-08-12T06:35:05;22.50;76.70
43884;DHT22;71973;52.018;5.810;2023-08-12T06:37:31;22.50;76.60
43884;DHT22;71973;52.018;5.810;2023-08-12T06:39:57;22.50;76.70
43884;DHT22;71973;52.018;5.810;2023-08-12T06:42:23;22.50;76.70
43884;DHT22;71973;52.018;5.810;2023-08-12T06:44:56;22.50;76.70
43884;DHT22;71973;52.018;5.810;2023-08-12T06:47:22;22.50;76.80
43884;DHT22;71973;52.018;5.810;2023-08-12T06:49:47;22.50;76.80
43884;DHT22;71973;52.018;5.810;2023-08-12T06:52:13;22.50;76.80
43884;DHT22;71973;52.018;5.810;2023-08-12T06:54:39;22.50;76.90
43884;DHT22;71973;52.018;5.810;2023-08-12T06:57:04;22.50;76.80
43884;DHT22;71973;52.018;5.810;2023-08-12T06:59:30;22.50;76.80
43884;DHT22;71973;52.018;5.810;2023-08-12T07:01:55;22.50;76.80
43884;DHT22;71973;52.018;5.810;2023-08-12T07:04:21;22.50;76.80
43884;DHT22;71973;52.018;5.810;2023-08-12T07:06:47;22.50;76.80
43884;DHT22;71973;52.018;5.810;2023-08-12T07:09:13;22.50;76.90
43884;DHT22;71973;52.018;5.810;2023-08-12T07:11:38;22.50;76.80
43884;DHT22;71973;52.018;5.810;2023-08-12T07:14:04;22.50;76.80
43884;DHT22;71973;52.018;5.810;2023-08-12T07:16:30;22.50;76.80
43884;DHT22;71973;52.018;5.810;2023-08-12T07:18:55;22.50;76.80
43884;DHT22;71973;52.018;5.810;2023-08-12T07:21:21;22.50;76.80
43884;DHT22;71973;52.018;5.810;2023-08-12T07:23:46;22.50;76.70
43884;DHT22;71973;52.018;5.810;2023-08-12T07:26:12;22.50;76.80
43884;DHT22;71973;52.018;5.810;2023-08-12T07:28:37;22.50;76.90
43884;DHT22;71973;52.018;5.810;2023-08-12T07:31:03;22.50;76.80
43884;DHT22;71973;52.018;5.810;2023-08-12T07:33:28;22.50;77.10
43884;DHT22;71973;52.018;5.810;2023-08-12T07:35:54;22.50;77.50
43884;DHT22;71973;52.018;5.810;2023-08-12T07:38:19;22.50;77.90
43884;DHT22;71973;52.018;5.810;2023-08-12T07:40:45;22.50;78.70
43884;DHT22;71973;52.018;5.810;2023-08-12T07:43:10;22.50;78.30
43884;DHT22;71973;52.018;5.810;2023-08-12T07:45:36;22.40;78.40
43884;DHT22;71973;52.018;5.810;2023-08-12T07:48:01;22.40;78.50
43884;DHT22;71973;52.018;5.810;2023-08-12T07:50:27;22.40;78.60
43884;DHT22;71973;52.018;5.810;2023-08-12T07:52:52;22.40;79.00
43884;DHT22;71973;52.018;5.810;2023-08-12T07:55:18;22.40;78.90
43884;DHT22;71973;52.018;5.810;2023-08-12T07:57:44;22.40;79.00
43884;DHT22;71973;52.018;5.810;2023-08-12T08:00:10;22.40;79.10
43884;DHT22;71973;52.018;5.810;2023-08-12T08:02:37;22.40;79.20
43884;DHT22;71973;52.018;5.810;2023-08-12T08:05:03;22.40;79.50
43884;DHT22;71973;52.018;5.810;2023-08-12T08:07:29;22.40;80.00
43884;DHT22;71973;52.018;5.810;2023-08-12T08:09:54;22.40;79.90
43884;DHT22;71973;52.018;5.810;2023-08-12T08:12:20;22.40;79.90
43884;DHT22;71973;52.018;5.810;2023-08-12T08:14:46;22.40;79.70
43884;DHT22;71973;52.018;5.810;2023-08-12T08:17:11;22.40;80.30
43884;DHT22;71973;52.018;5.810;2023-08-12T08:19:37;22.40;80.40
43884;DHT22;71973;52.018;5.810;2023-08-12T08:22:02;22.40;80.30
43884;DHT22;71973;52.018;5.810;2023-08-12T08:24:28;22.40;80.80
43884;DHT22;71973;52.018;5.810;2023-08-12T08:26:54;22.40;80.60
43884;DHT22;71973;52.018;5.810;2023-08-12T08:29:19;22.40;80.70
43884;DHT22;71973;52.018;5.810;2023-08-12T08:31:45;22.40;80.80
43884;DHT22;71973;52.018;5.810;2023-08-12T08:34:10;22.40;80.40
43884;DHT22;71973;52.018;5.810;2023-08-12T08:36:36;22.40;80.60
43884;DHT22;71973;52.018;5.810;2023-08-12T08:39:02;22.40;80.70
43884;DHT22;71973;52.018;5.810;2023-08-12T08:41:30;22.40;81.70
43884;DHT22;71973;52.018;5.810;2023-08-12T08:44:02;22.40;80.80
43884;DHT22;71973;52.018;5.810;2023-08-12T08:46:29;22.40;81.20
43884;DHT22;71973;52.018;5.810;2023-08-12T08:48:55;22.40;81.20
43884;DHT22;71973;52.018;5.810;2023-08-12T08:51:25;22.40;81.40
43884;DHT22;71973;52.018;5.810;2023-08-12T08:53:54;22.40;81.50
43884;DHT22;71973;52.018;5.810;2023-08-12T08:56:21;22.40;81.40
43884;DHT22;71973;52.018;5.810;2023-08-12T08:58:47;22.40;81.40
43884;DHT22;71973;52.018;5.810;2023-08-12T09:01:13;22.40;81.00
43884;DHT22;71973;52.018;5.810;2023-08-12T09:03:40;22.40;81.40
43884;DHT22;71973;52.018;5.810;2023-08-12T09:06:06;22.40;81.40
43884;DHT22;71973;52.018;5.810;2023-08-12T09:08:32;22.40;81.60
43884;DHT22;71973;52.018;5.810;2023-08-12T09:10:59;22.40;81.50
43884;DHT22;71973;52.018;5.810;2023-08-12T09:13:25;22.40;81.60
43884;DHT22;71973;52.018;5.810;2023-08-12T09:15:51;22.40;82.20
43884;DHT22;71973;52.018;5.810;2023-08-12T09:18:17;22.40;81.50
43884;DHT22;71973;52.018;5.810;2023-08-12T09:20:43;22.40;82.10
43884;DHT22;71973;52.018;5.810;2023-08-12T09:23:09;22.40;81.80
43884;DHT22;71973;52.018;5.810;2023-08-12T09:25:41;22.40;81.60
43884;DHT22;71973;52.018;5.810;2023-08-12T09:28:09;22.40;81.80
43884;DHT22;71973;52.018;5.810;2023-08-12T09:30:35;22.40;82.30
43884;DHT22;71973;52.018;5.810;2023-08-12T09:33:03;22.40;82.30
43884;DHT22;71973;52.018;5.810;2023-08-12T09:35:33;22.40;82.20
43884;DHT22;71973;52.018;5.810;2023-08-12T09:38:01;22.40;82.00
43884;DHT22;71973;52.018;5.810;2023-08-12T09:40:28;22.40;82.30
43884;DHT22;71973;52.018;5.810;2023-08-12T09:42:53;22.50;82.30
43884;DHT22;71973;52.018;5.810;2023-08-12T09:45:22;22.40;82.80
43884;DHT22;71973;52.018;5.810;2023-08-12T09:47:48;22.40;82.40
43884;DHT22;71973;52.018;5.810;2023-08-12T09:50:14;22.50;82.80
43884;DHT22;71973;52.018;5.810;2023-08-12T09:52:40;22.50;83.10
43884;DHT22;71973;52.018;5.810;2023-08-12T09:55:07;22.50;83.30
43884;DHT22;71973;52.018;5.810;2023-08-12T09:57:35;22.40;83.20
43884;DHT22;71973;52.018;5.810;2023-08-12T10:00:02;22.50;83.20
43884;DHT22;71973;52.018;5.810;2023-08-12T10:02:29;22.40;83.40
43884;DHT22;71973;52.018;5.810;2023-08-12T10:04:56;22.50;83.50
43884;DHT22;71973;52.018;5.810;2023-08-12T10:07:23;22.50;83.70
43884;DHT22;71973;52.018;5.810;2023-08-12T10:09:50;22.50;83.40
43884;DHT22;71973;52.018;5.810;2023-08-12T10:12:15;22.50;83.40
43884;DHT22;71973;52.018;5.810;2023-08-12T10:14:42;22.50;83.70
43884;DHT22;71973;52.018;5.810;2023-08-12T10:17:08;22.50;83.40
43884;DHT22;71973;52.018;5.810;2023-08-12T10:19:36;22.50;83.70
43884;DHT22;71973;52.018;5.810;2023-08-12T10:22:02;22.50;83.90
43884;DHT22;71973;52.018;5.810;2023-08-12T10:24:29;22.50;83.90
43884;DHT22;71973;52.018;5.810;2023-08-12T10:26:55;22.50;84.50
43884;DHT22;71973;52.018;5.810;2023-08-12T10:29:23;22.50;84.00
43884;DHT22;71973;52.018;5.810;2023-08-12T10:31:50;22.50;84.10
43884;DHT22;71973;52.018;5.810;2023-08-12T10:34:23;22.50;84.00
43884;DHT22;71973;52.018;5.810;2023-08-12T10:36:57;22.50;84.30
43884;DHT22;71973;52.018;5.810;2023-08-12T10:39:31;22.50;83.70
43884;DHT22;71973;52.018;5.810;2023-08-12T10:41:57;22.50;83.60
43884;DHT22;71973;52.018;5.810;2023-08-12T10:45:12;22.50;83.50
43884;DHT22;71973;52.018;5.810;2023-08-12T10:47:12;22.50;83.10
43884;DHT22;71973;52.018;5.810;2023-08-12T10:49:39;22.50;82.80
43884;DHT22;71973;52.018;5.810;2023-08-12T10:52:28;22.50;83.00
43884;DHT22;71973;52.018;5.810;2023-08-12T10:54:54;22.50;82.90
43884;DHT22;71973;52.018;5.810;2023-08-12T10:57:35;22.50;82.90
43884;DHT22;71973;52.018;5.810;2023-08-12T11:00:04;22.60;83.00
43884;DHT22;71973;52.018;5.810;2023-08-12T11:02:33;22.60;83.40
43884;DHT22;71973;52.018;5.810;2023-08-12T11:05:09;22.60;83.60
43884;DHT22;71973;52.018;5.810;2023-08-12T11:08:12;22.60;83.60
43884;DHT22;71973;52.018;5.810;2023-08-12T11:10:32;22.60;83.90
43884;DHT22;71973;52.018;5.810;2023-08-12T11:12:59;22.60;83.80
43884;DHT22;71973;52.018;5.810;2023-08-12T11:15:43;22.60;83.70
43884;DHT22;71973;52.018;5.810;2023-08-12T11:18:19;22.60;83.30
43884;DHT22;71973;52.018;5.810;2023-08-12T11:20:47;22.60;83.10
43884;DHT22;71973;52.018;5.810;2023-08-12T11:23:13;22.60;82.90
43884;DHT22;71973;52.018;5.810;2023-08-12T11:25:40;22.60;82.60
43884;DHT22;71973;52.018;5.810;2023-08-12T11:28:07;22.60;82.30
43884;DHT22;71973;52.018;5.810;2023-08-12T11:30:33;22.60;82.10
43884;DHT22;71973;52.018;5.810;2023-08-12T11:38:01;22.70;81.30
43884;DHT22;71973;52.018;5.810;2023-08-12T11:40:28;22.70;81.20
43884;DHT22;71973;52.018;5.810;2023-08-12T11:42:54;22.70;81.10
43884;DHT22;71973;52.018;5.810;2023-08-12T11:45:24;22.70;80.90
43884;DHT22;71973;52.018;5.810;2023-08-12T11:47:51;22.70;80.80
43884;DHT22;71973;52.018;5.810;2023-08-12T11:50:22;22.70;80.70
43884;DHT22;71973;52.018;5.810;2023-08-12T11:52:48;22.70;80.60
43884;DHT22;71973;52.018;5.810;2023-08-12T11:55:14;22.70;80.50
43884;DHT22;71973;52.018;5.810;2023-08-12T11:57:40;22.80;80.30
43884;DHT22;71973;52.018;5.810;2023-08-12T12:00:08;22.80;80.00
43884;DHT22;71973;52.018;5.810;2023-08-12T12:02:51;22.70;80.00
43884;DHT22;71973;52.018;5.810;2023-08-12T12:05:20;22.80;79.30
43884;DHT22;71973;52.018;5.810;2023-08-12T12:07:48;22.80;79.60
43884;DHT22;71973;52.018;5.810;2023-08-12T12:10:19;22.80;79.60
43884;DHT22;71973;52.018;5.810;2023-08-12T12:12:44;22.80;79.60
43884;DHT22;71973;52.018;5.810;2023-08-12T12:15:13;22.80;79.80
43884;DHT22;71973;52.018;5.810;2023-08-12T12:17:40;22.80;79.80
43884;DHT22;71973;52.018;5.810;2023-08-12T12:20:07;22.80;79.40
43884;DHT22;71973;52.018;5.810;2023-08-12T12:22:36;22.80;79.40
43884;DHT22;71973;52.018;5.810;2023-08-12T12:25:09;22.80;78.80
43884;DHT22;71973;52.018;5.810;2023-08-12T12:27:39;22.80;78.70
43884;DHT22;71973;52.018;5.810;2023-08-12T12:30:09;22.80;78.40
43884;DHT22;71973;52.018;5.810;2023-08-12T12:32:35;22.80;78.10
43884;DHT22;71973;52.018;5.810;2023-08-12T12:35:01;22.80;77.90
43884;DHT22;71973;52.018;5.810;2023-08-12T12:37:27;22.80;77.70
43884;DHT22;71973;52.018;5.810;2023-08-12T12:39:53;22.90;77.80
43884;DHT22;71973;52.018;5.810;2023-08-12T12:42:18;22.90;77.40
43884;DHT22;71973;52.018;5.810;2023-08-12T12:44:44;22.90;77.90
43884;DHT22;71973;52.018;5.810;2023-08-12T12:47:10;22.90;77.30
43884;DHT22;71973;52.018;5.810;2023-08-12T12:49:38;22.90;77.20
43884;DHT22;71973;52.018;5.810;2023-08-12T12:52:03;22.90;77.20
43884;DHT22;71973;52.018;5.810;2023-08-12T12:54:29;22.90;76.90
43884;DHT22;71973;52.018;5.810;2023-08-12T12:56:56;22.80;76.90
43884;DHT22;71973;52.018;5.810;2023-08-12T12:59:22;22.80;76.60
43884;DHT22;71973;52.018;5.810;2023-08-12T13:01:48;22.80;76.20
43884;DHT22;71973;52.018;5.810;2023-08-12T13:04:14;22.80;76.10
43884;DHT22;71973;52.018;5.810;2023-08-12T13:06:39;22.80;76.10
43884;DHT22;71973;52.018;5.810;2023-08-12T13:09:05;22.80;75.90
43884;DHT22;71973;52.018;5.810;2023-08-12T13:11:32;22.80;76.10
43884;DHT22;71973;52.018;5.810;2023-08-12T13:13:59;22.80;75.90
43884;DHT22;71973;52.018;5.810;2023-08-12T13:16:25;22.80;75.80
43884;DHT22;71973;52.018;5.810;2023-08-12T13:18:51;22.90;75.80
43884;DHT22;71973;52.018;5.810;2023-08-12T13:21:16;22.80;75.50
43884;DHT22;71973;52.018;5.810;2023-08-12T13:23:42;22.90;74.70
43884;DHT22;71973;52.018;5.810;2023-08-12T13:26:07;22.90;74.60
43884;DHT22;71973;52.018;5.810;2023-08-12T13:28:33;22.90;74.80
43884;DHT22;71973;52.018;5.810;2023-08-12T13:30:59;22.90;74.40
43884;DHT22;71973;52.018;5.810;2023-08-12T13:33:24;23.00;74.40
43884;DHT22;71973;52.018;5.810;2023-08-12T13:35:50;23.00;74.10
43884;DHT22;71973;52.018;5.810;2023-08-12T13:38:15;22.90;74.20
43884;DHT22;71973;52.018;5.810;2023-08-12T13:40:42;22.90;73.80
43884;DHT22;71973;52.018;5.810;2023-08-12T13:43:07;22.90;73.80
43884;DHT22;71973;52.018;5.810;2023-08-12T13:45:33;23.00;73.90
43884;DHT22;71973;52.018;5.810;2023-08-12T13:47:58;23.00;74.40
43884;DHT22;71973;52.018;5.810;2023-08-12T13:50:24;23.00;73.80
43884;DHT22;71973;52.018;5.810;2023-08-12T13:52:50;23.10;73.50
43884;DHT22;71973;52.018;5.810;2023-08-12T13:55:15;23.10;73.20
43884;DHT22;71973;52.018;5.810;2023-08-12T13:57:41;23.10;73.70
43884;DHT22;71973;52.018;5.810;2023-08-12T14:00:07;23.10;73.10
43884;DHT22;71973;52.018;5.810;2023-08-12T14:02:35;23.10;72.40
43884;DHT22;71973;52.018;5.810;2023-08-12T14:05:02;23.10;72.20
43884;DHT22;71973;52.018;5.810;2023-08-12T14:07:28;23.10;72.00
43884;DHT22;71973;52.018;5.810;2023-08-12T14:09:53;23.20;72.50
43884;DHT22;71973;52.018;5.810;2023-08-12T14:12:19;23.00;72.10
43884;DHT22;71973;52.018;5.810;2023-08-12T14:14:44;23.10;72.30
43884;DHT22;71973;52.018;5.810;2023-08-12T14:17:10;23.10;72.10
43884;DHT22;71973;52.018;5.810;2023-08-12T14:19:40;23.10;71.70
43884;DHT22;71973;52.018;5.810;2023-08-12T14:22:07;23.20;71.30
43884;DHT22;71973;52.018;5.810;2023-08-12T14:24:32;23.20;70.70
43884;DHT22;71973;52.018;5.810;2023-08-12T14:26:58;23.20;70.30
43884;DHT22;71973;52.018;5.810;2023-08-12T14:29:23;23.20;70.20
43884;DHT22;71973;52.018;5.810;2023-08-12T14:31:49;23.20;70.30
43884;DHT22;71973;52.018;5.810;2023-08-12T14:34:14;23.20;70.50
43884;DHT22;71973;52.018;5.810;2023-08-12T14:36:40;23.10;70.80
43884;DHT22;71973;52.018;5.810;2023-08-12T14:39:05;23.10;70.90
43884;DHT22;71973;52.018;5.810;2023-08-12T14:41:31;23.10;70.80
43884;DHT22;71973;52.018;5.810;2023-08-12T14:43:56;23.20;70.70
43884;DHT22;71973;52.018;5.810;2023-08-12T14:46:22;23.20;70.70
43884;DHT22;71973;52.018;5.810;2023-08-12T14:48:47;23.10;70.50
43884;DHT22;71973;52.018;5.810;2023-08-12T14:51:13;23.10;70.40
43884;DHT22;71973;52.018;5.810;2023-08-12T14:53:38;23.10;70.10
43884;DHT22;71973;52.018;5.810;2023-08-12T14:56:04;23.10;70.40
43884;DHT22;71973;52.018;5.810;2023-08-12T14:58:30;23.10;69.80
43884;DHT22;71973;52.018;5.810;2023-08-12T15:00:55;23.10;70.00
43884;DHT22;71973;52.018;5.810;2023-08-12T15:03:22;23.10;69.80
43884;DHT22;71973;52.018;5.810;2023-08-12T15:05:47;23.10;70.30
43884;DHT22;71973;52.018;5.810;2023-08-12T15:08:13;23.20;69.20
43884;DHT22;71973;52.018;5.810;2023-08-12T15:10:38;23.20;68.60
43884;DHT22;71973;52.018;5.810;2023-08-12T15:13:05;23.20;68.80
43884;DHT22;71973;52.018;5.810;2023-08-12T15:15:30;23.20;68.10
43884;DHT22;71973;52.018;5.810;2023-08-12T15:17:56;23.20;68.10
43884;DHT22;71973;52.018;5.810;2023-08-12T15:20:21;23.20;68.10
43884;DHT22;71973;52.018;5.810;2023-08-12T15:22:47;23.10;68.40
43884;DHT22;71973;52.018;5.810;2023-08-12T15:25:12;23.20;68.00
43884;DHT22;71973;52.018;5.810;2023-08-12T15:27:38;23.10;67.70
43884;DHT22;71973;52.018;5.810;2023-08-12T15:30:04;23.10;66.90
43884;DHT22;71973;52.018;5.810;2023-08-12T15:32:29;23.20;67.40